createdAt,value
2022-12-13T00:00:43.459Z,2.8
2022-12-13T00:04:28.926Z,2.8
2022-12-13T00:06:32.543Z,3.6
2022-12-13T00:07:34.180Z,3.6
2022-12-13T00:09:44.917Z,3.6
2022-12-13T00:12:21.497Z,3.6
2022-12-13T00:13:33.160Z,3.6
2022-12-13T00:15:25.800Z,3.6
2022-12-13T00:15:44.871Z,3.6
2022-12-13T00:16:50.332Z,3.1
2022-12-13T00:18:34.246Z,3.1
2022-12-13T00:18:57.396Z,3.1
2022-12-13T00:22:49.724Z,3.1
2022-12-13T00:23:31.488Z,3.1
2022-12-13T00:26:24.975Z,3.1
2022-12-13T00:26:24.994Z,2.8
2022-12-13T00:27:29.632Z,2.8
2022-12-13T00:30:38.833Z,2.8
2022-12-13T00:36:14.482Z,2.7
2022-12-13T00:46:15.212Z,3.2
2022-12-13T00:56:15.790Z,2.8
2022-12-13T01:06:16.844Z,3.1
2022-12-13T01:16:17.310Z,3.4
2022-12-13T01:26:18.109Z,2.6
2022-12-13T01:36:18.924Z,2.4
2022-12-13T01:46:20.111Z,2.6
2022-12-13T01:56:20.635Z,2.3
2022-12-13T02:06:22.954Z,2.3
2022-12-13T02:16:25.222Z,3.2
2022-12-13T02:26:24.625Z,2.4
2022-12-13T02:36:24.007Z,2.4
2022-12-13T02:46:24.907Z,5.7
2022-12-13T02:56:26.964Z,3.7
2022-12-13T03:06:26.444Z,3.8
2022-12-13T03:16:31.251Z,2.3
2022-12-13T03:26:28.062Z,2.5
2022-12-13T03:36:29.039Z,3.1
2022-12-13T03:46:29.742Z,4.5
2022-12-13T03:56:30.538Z,3
2022-12-13T04:06:33.124Z,3.3
2022-12-13T04:16:32.123Z,3.3
2022-12-13T04:26:32.863Z,3
2022-12-13T04:36:33.565Z,3
2022-12-13T04:46:34.338Z,3.4
2022-12-13T04:56:35.114Z,2.7
2022-12-13T05:06:35.961Z,3.7
2022-12-13T05:16:47.384Z,2.9
2022-12-13T05:25:08.622Z,2.9
2022-12-13T05:26:37.647Z,3.3
2022-12-13T05:36:38.536Z,2.8
2022-12-13T05:46:41.546Z,3.4
2022-12-13T05:56:40.018Z,4
2022-12-13T06:06:40.833Z,3.6
2022-12-13T06:16:41.625Z,3.1
2022-12-13T06:26:42.325Z,3.4
2022-12-13T06:36:43.116Z,3.5
2022-12-13T06:46:43.856Z,3.5
2022-12-13T06:56:44.554Z,4.7
2022-12-13T07:06:45.355Z,5.4
2022-12-13T07:16:46.137Z,4.8
2022-12-13T07:26:46.930Z,5
2022-12-13T07:36:47.648Z,4.3
2022-12-13T07:46:48.446Z,5.5
2022-12-13T07:56:49.158Z,5.1
2022-12-13T08:06:49.923Z,5.2
2022-12-13T08:16:50.711Z,4.5
2022-12-13T08:26:51.474Z,5.7
2022-12-13T08:36:52.263Z,5.7
2022-12-13T08:46:53.023Z,5.2
2022-12-13T08:56:53.698Z,4.4
2022-12-13T09:06:54.439Z,5.2
2022-12-13T09:16:56.449Z,5.3
2022-12-13T09:26:56.977Z,5.5
2022-12-13T09:37:01.281Z,4.2
2022-12-13T09:47:00.820Z,4
2022-12-13T09:56:58.370Z,3.5
2022-12-13T10:06:59.008Z,5.3
2022-12-13T10:16:59.770Z,3.8
2022-12-13T10:27:00.439Z,3.9
2022-12-13T10:37:01.110Z,2.8
2022-12-13T10:47:01.847Z,3
2022-12-13T10:57:02.565Z,3.3
2022-12-13T11:07:03.233Z,3.5
2022-12-13T11:17:04.105Z,5.6
2022-12-13T11:27:04.706Z,3.4
2022-12-13T11:37:05.461Z,4.3
2022-12-13T11:47:06.361Z,5.2
2022-12-13T11:57:08.599Z,3.2
2022-12-13T12:07:30.999Z,5.8
2022-12-13T12:13:19.977Z,5.8
2022-12-13T12:17:09.919Z,5.3
2022-12-13T12:20:27.498Z,5.3
2022-12-13T12:27:09.471Z,4.8
2022-12-13T12:37:13.165Z,4.5
2022-12-13T12:47:47.015Z,6
2022-12-13T12:49:09.306Z,6
2022-12-13T12:53:37.606Z,6
2022-12-13T12:56:01.871Z,6
2022-12-13T12:57:11.553Z,5.1
2022-12-13T12:58:38.502Z,5.1
2022-12-13T13:07:22.728Z,4.3
2022-12-13T13:17:13.067Z,5.3
2022-12-13T13:27:15.018Z,4
2022-12-13T13:37:20.914Z,4.9
2022-12-13T13:47:14.852Z,5.4
2022-12-13T13:54:48.515Z,5.4
2022-12-13T13:57:16.465Z,7.4
2022-12-13T14:07:27.047Z,5.5
2022-12-13T14:17:17.151Z,4.5
2022-12-13T14:24:00.194Z,4.5
2022-12-13T14:27:17.386Z,5.6
2022-12-13T14:37:18.183Z,5.1
2022-12-13T14:47:22.615Z,7
2022-12-13T14:48:34.275Z,7
2022-12-13T14:57:19.424Z,4.7
2022-12-13T15:07:20.066Z,3.9
2022-12-13T15:17:31.097Z,4.1
2022-12-13T15:18:12.573Z,4.1
2022-12-13T15:27:21.418Z,8.2
2022-12-13T15:37:28.727Z,4.7
2022-12-13T15:45:53.670Z,4.7
2022-12-13T15:46:31.923Z,4.7
2022-12-13T15:47:27.984Z,3.6
2022-12-13T15:51:28.557Z,3.6
2022-12-13T15:57:27.748Z,5
2022-12-13T16:07:24.043Z,4.7
2022-12-13T16:17:24.773Z,4.3
2022-12-13T16:25:43.715Z,4.3
2022-12-13T16:27:25.422Z,6.3
2022-12-13T16:37:27.292Z,5.2
2022-12-13T16:40:46.691Z,5.2
2022-12-13T16:47:36.553Z,5.4
2022-12-13T16:57:31.720Z,5.3
2022-12-13T17:01:49.736Z,5.3
2022-12-13T17:04:50.955Z,5.3
2022-12-13T17:07:28.187Z,4.4
2022-12-13T17:17:28.845Z,5.5
2022-12-13T17:21:07.605Z,5.5
2022-12-13T17:24:50.013Z,5.5
2022-12-13T17:27:31.152Z,4
2022-12-13T17:28:13.788Z,4
2022-12-13T17:37:30.392Z,3.9
2022-12-13T17:47:35.536Z,6.3
2022-12-13T17:57:31.686Z,3.9
2022-12-13T18:07:52.620Z,3.5
2022-12-13T18:18:01.591Z,4
2022-12-13T18:24:46.810Z,4
2022-12-13T18:27:34.021Z,3.3
2022-12-13T18:37:34.672Z,4.6
2022-12-13T18:42:20.919Z,4.6
2022-12-13T18:47:36.038Z,4.4
2022-12-13T18:57:36.090Z,4
2022-12-13T19:07:38.270Z,6.7
2022-12-13T19:17:37.723Z,4
2022-12-13T19:27:38.523Z,4.2
2022-12-13T19:37:39.105Z,4.7
2022-12-13T19:46:38.878Z,4.7
2022-12-13T19:47:39.827Z,4.5
2022-12-13T19:57:38.648Z,4.5
2022-12-13T19:57:41.948Z,4.2
2022-12-13T20:01:43.328Z,4.2
2022-12-13T20:07:41.290Z,4.8
2022-12-13T20:17:42.134Z,4.7
2022-12-13T20:27:44.358Z,7.2
2022-12-13T20:37:43.708Z,5.6
2022-12-13T20:47:47.244Z,5.1
2022-12-13T20:57:45.378Z,4.6
2022-12-13T21:04:42.292Z,4.6
2022-12-13T21:07:48.448Z,6.2
2022-12-13T21:17:47.100Z,6.2
2022-12-13T21:27:48.368Z,5
2022-12-13T21:37:48.685Z,4.1
2022-12-13T21:41:04.448Z,4.1
2022-12-13T21:44:35.583Z,4.1
2022-12-13T21:47:49.553Z,5.8
2022-12-13T21:57:50.295Z,6.2
2022-12-13T22:08:17.331Z,4.3
2022-12-13T22:17:51.962Z,6
2022-12-13T22:27:57.086Z,8
2022-12-13T22:28:35.250Z,8
2022-12-13T22:37:57.676Z,6.9
2022-12-13T22:38:38.334Z,6.9
2022-12-13T22:47:54.320Z,10.6
2022-12-13T22:57:56.326Z,10.9
2022-12-13T23:07:55.692Z,18.3
2022-12-13T23:17:56.310Z,24.6
2022-12-13T23:27:57.046Z,23.4
2022-12-13T23:37:57.844Z,22.7
2022-12-13T23:47:59.515Z,23.9
2022-12-13T23:57:59.119Z,19.8
